sensor_id;sensor_type;location;lat;lon;timestamp;temperature;humidity
9118;DHT22;4594;50.994;7.126;2024-02-15T00:01:01;14.20;74.90
9118;DHT22;4594;50.994;7.126;2024-02-15T00:03:29;14.20;74.80
9118;DHT22;4594;50.994;7.126;2024-02-15T00:05:59;14.10;74.70
9118;DHT22;4594;50.994;7.126;2024-02-15T00:08:25;14.20;74.90
9118;DHT22;4594;50.994;7.126;2024-02-15T00:10:52;14.10;74.80
9118;DHT22;4594;50.994;7.126;2024-02-15T00:13:19;14.20;75.00
9118;DHT22;4594;50.994;7.126;2024-02-15T00:15:45;14.30;75.20
9118;DHT22;4594;50.994;7.126;2024-02-15T00:18:14;14.20;75.20
9118;DHT22;4594;50.994;7.126;2024-02-15T00:20:40;14.20;75.20
9118;DHT22;4594;50.994;7.126;2024-02-15T00:23:05;14.20;75.10
9118;DHT22;4594;50.994;7.126;2024-02-15T00:25:34;14.20;75.00
9118;DHT22;4594;50.994;7.126;2024-02-15T00:28:00;14.20;74.90
9118;DHT22;4594;50.994;7.126;2024-02-15T00:30:27;14.20;75.00
9118;DHT22;4594;50.994;7.126;2024-02-15T00:32:53;14.30;75.10
9118;DHT22;4594;50.994;7.126;2024-02-15T00:35:19;14.30;75.40
9118;DHT22;4594;50.994;7.126;2024-02-15T00:37:45;14.20;74.80
9118;DHT22;4594;50.994;7.126;2024-02-15T00:40:11;14.20;74.80
9118;DHT22;4594;50.994;7.126;2024-02-15T00:42:37;14.20;74.90
9118;DHT22;4594;50.994;7.126;2024-02-15T00:45:06;14.20;74.90
9118;DHT22;4594;50.994;7.126;2024-02-15T00:47:34;14.20;74.60
9118;DHT22;4594;50.994;7.126;2024-02-15T00:50:00;14.20;74.80
9118;DHT22;4594;50.994;7.126;2024-02-15T00:52:26;14.30;74.90
9118;DHT22;4594;50.994;7.126;2024-02-15T00:54:51;14.20;74.80
9118;DHT22;4594;50.994;7.126;2024-02-15T00:57:17;14.30;75.00
9118;DHT22;4594;50.994;7.126;2024-02-15T00:59:43;14.30;75.00
9118;DHT22;4594;50.994;7.126;2024-02-15T01:02:08;14.30;75.00
9118;DHT22;4594;50.994;7.126;2024-02-15T01:04:34;14.30;75.00
9118;DHT22;4594;50.994;7.126;2024-02-15T01:07:00;14.30;75.00
9118;DHT22;4594;50.994;7.126;2024-02-15T01:09:26;14.40;75.10
9118;DHT22;4594;50.994;7.126;2024-02-15T01:11:52;14.30;74.80
9118;DHT22;4594;50.994;7.126;2024-02-15T01:14:17;14.30;74.70
9118;DHT22;4594;50.994;7.126;2024-02-15T01:16:43;14.30;74.50
9118;DHT22;4594;50.994;7.126;2024-02-15T01:19:09;14.30;74.50
9118;DHT22;4594;50.994;7.126;2024-02-15T01:21:35;14.30;74.60
9118;DHT22;4594;50.994;7.126;2024-02-15T01:24:02;14.30;74.60
9118;DHT22;4594;50.994;7.126;2024-02-15T01:26:29;14.30;74.60
9118;DHT22;4594;50.994;7.126;2024-02-15T01:28:57;14.30;74.60
9118;DHT22;4594;50.994;7.126;2024-02-15T01:31:23;14.30;74.50
9118;DHT22;4594;50.994;7.126;2024-02-15T01:33:49;14.30;74.50
9118;DHT22;4594;50.994;7.126;2024-02-15T01:36:18;14.30;74.60
9118;DHT22;4594;50.994;7.126;2024-02-15T01:38:44;14.30;74.50
9118;DHT22;4594;50.994;7.126;2024-02-15T01:41:10;14.30;74.50
9118;DHT22;4594;50.994;7.126;2024-02-15T01:43:36;14.30;74.40
9118;DHT22;4594;50.994;7.126;2024-02-15T01:46:08;14.30;74.30
9118;DHT22;4594;50.994;7.126;2024-02-15T01:48:37;14.30;73.70
9118;DHT22;4594;50.994;7.126;2024-02-15T01:51:04;14.30;74.40
9118;DHT22;4594;50.994;7.126;2024-02-15T01:53:31;14.30;74.10
9118;DHT22;4594;50.994;7.126;2024-02-15T01:55:58;14.30;74.10
9118;DHT22;4594;50.994;7.126;2024-02-15T01:58:26;14.30;74.10
9118;DHT22;4594;50.994;7.126;2024-02-15T02:00:53;14.30;74.00
9118;DHT22;4594;50.994;7.126;2024-02-15T02:03:22;14.20;74.10
9118;DHT22;4594;50.994;7.126;2024-02-15T02:05:47;14.30;74.30
9118;DHT22;4594;50.994;7.126;2024-02-15T02:08:13;14.30;74.30
9118;DHT22;4594;50.994;7.126;2024-02-15T02:10:39;14.30;74.20
9118;DHT22;4594;50.994;7.126;2024-02-15T02:13:05;14.30;74.10
9118;DHT22;4594;50.994;7.126;2024-02-15T02:15:32;14.20;74.00
9118;DHT22;4594;50.994;7.126;2024-02-15T02:17:59;14.30;74.10
9118;DHT22;4594;50.994;7.126;2024-02-15T02:20:26;14.30;74.10
9118;DHT22;4594;50.994;7.126;2024-02-15T02:22:54;14.20;74.00
9118;DHT22;4594;50.994;7.126;2024-02-15T02:25:26;14.30;74.00
9118;DHT22;4594;50.994;7.126;2024-02-15T02:27:52;14.20;73.90
9118;DHT22;4594;50.994;7.126;2024-02-15T02:30:18;14.20;73.80
9118;DHT22;4594;50.994;7.126;2024-02-15T02:32:47;14.30;73.90
9118;DHT22;4594;50.994;7.126;2024-02-15T02:35:14;14.20;73.80
9118;DHT22;4594;50.994;7.126;2024-02-15T02:37:41;14.20;73.80
9118;DHT22;4594;50.994;7.126;2024-02-15T02:40:08;14.20;73.80
9118;DHT22;4594;50.994;7.126;2024-02-15T02:42:57;14.20;73.90
9118;DHT22;4594;50.994;7.126;2024-02-15T02:45:24;14.20;73.80
9118;DHT22;4594;50.994;7.126;2024-02-15T02:47:54;14.10;73.60
9118;DHT22;4594;50.994;7.126;2024-02-15T02:50:23;14.20;73.70
9118;DHT22;4594;50.994;7.126;2024-02-15T02:52:49;14.20;73.40
9118;DHT22;4594;50.994;7.126;2024-02-15T02:55:15;14.20;73.80
9118;DHT22;4594;50.994;7.126;2024-02-15T02:57:42;14.20;73.70
9118;DHT22;4594;50.994;7.126;2024-02-15T03:00:11;14.10;73.50
9118;DHT22;4594;50.994;7.126;2024-02-15T03:02:40;14.20;73.20
9118;DHT22;4594;50.994;7.126;2024-02-15T03:05:07;14.10;73.40
9118;DHT22;4594;50.994;7.126;2024-02-15T03:07:35;14.10;73.50
9118;DHT22;4594;50.994;7.126;2024-02-15T03:10:04;14.10;73.50
9118;DHT22;4594;50.994;7.126;2024-02-15T03:12:36;14.10;73.20
9118;DHT22;4594;50.994;7.126;2024-02-15T03:15:03;14.10;73.60
9118;DHT22;4594;50.994;7.126;2024-02-15T03:17:33;14.10;73.60
9118;DHT22;4594;50.994;7.126;2024-02-15T03:19:58;14.20;74.00
9118;DHT22;4594;50.994;7.126;2024-02-15T03:22:27;14.20;73.60
9118;DHT22;4594;50.994;7.126;2024-02-15T03:24:54;14.10;73.30
9118;DHT22;4594;50.994;7.126;2024-02-15T03:27:20;14.10;73.90
9118;DHT22;4594;50.994;7.126;2024-02-15T03:29:48;14.10;73.60
9118;DHT22;4594;50.994;7.126;2024-02-15T03:32:14;14.10;73.60
9118;DHT22;4594;50.994;7.126;2024-02-15T03:34:40;14.20;73.70
9118;DHT22;4594;50.994;7.126;2024-02-15T03:37:07;14.10;73.50
9118;DHT22;4594;50.994;7.126;2024-02-15T03:39:35;14.10;73.60
9118;DHT22;4594;50.994;7.126;2024-02-15T03:42:00;14.10;73.60
9118;DHT22;4594;50.994;7.126;2024-02-15T03:44:26;14.20;73.80
9118;DHT22;4594;50.994;7.126;2024-02-15T03:46:52;14.10;73.70
9118;DHT22;4594;50.994;7.126;2024-02-15T03:49:19;14.20;73.70
9118;DHT22;4594;50.994;7.126;2024-02-15T03:51:45;14.10;73.60
9118;DHT22;4594;50.994;7.126;2024-02-15T03:54:11;14.10;73.60
9118;DHT22;4594;50.994;7.126;2024-02-15T03:56:49;14.10;73.70
9118;DHT22;4594;50.994;7.126;2024-02-15T03:59:19;14.10;72.80
9118;DHT22;4594;50.994;7.126;2024-02-15T04:01:53;14.10;73.60
9118;DHT22;4594;50.994;7.126;2024-02-15T04:04:20;14.20;73.70
9118;DHT22;4594;50.994;7.126;2024-02-15T04:06:52;14.10;73.80
9118;DHT22;4594;50.994;7.126;2024-02-15T04:09:18;14.10;73.50
9118;DHT22;4594;50.994;7.126;2024-02-15T04:11:46;14.10;73.90
9118;DHT22;4594;50.994;7.126;2024-02-15T04:14:16;14.20;74.00
9118;DHT22;4594;50.994;7.126;2024-02-15T04:16:43;14.00;73.80
9118;DHT22;4594;50.994;7.126;2024-02-15T04:19:10;14.10;73.80
9118;DHT22;4594;50.994;7.126;2024-02-15T04:21:36;14.10;73.80
9118;DHT22;4594;50.994;7.126;2024-02-15T04:24:04;14.10;73.80
9118;DHT22;4594;50.994;7.126;2024-02-15T04:26:30;14.10;73.70
9118;DHT22;4594;50.994;7.126;2024-02-15T04:28:57;14.10;73.70
9118;DHT22;4594;50.994;7.126;2024-02-15T04:31:24;14.10;73.70
9118;DHT22;4594;50.994;7.126;2024-02-15T04:33:53;14.10;73.80
9118;DHT22;4594;50.994;7.126;2024-02-15T04:36:20;14.10;73.80
9118;DHT22;4594;50.994;7.126;2024-02-15T04:38:51;14.20;74.00
9118;DHT22;4594;50.994;7.126;2024-02-15T04:41:18;14.10;73.90
9118;DHT22;4594;50.994;7.126;2024-02-15T04:43:50;14.00;73.80
9118;DHT22;4594;50.994;7.126;2024-02-15T04:46:17;14.10;73.70
9118;DHT22;4594;50.994;7.126;2024-02-15T04:48:47;14.10;73.70
9118;DHT22;4594;50.994;7.126;2024-02-15T04:51:16;14.10;73.70
9118;DHT22;4594;50.994;7.126;2024-02-15T04:53:47;14.20;73.90
9118;DHT22;4594;50.994;7.126;2024-02-15T04:56:13;14.20;73.40
9118;DHT22;4594;50.994;7.126;2024-02-15T04:58:40;14.20;73.90
9118;DHT22;4594;50.994;7.126;2024-02-15T05:01:16;14.20;73.90
9118;DHT22;4594;50.994;7.126;2024-02-15T05:03:43;14.20;73.60
9118;DHT22;4594;50.994;7.126;2024-02-15T05:06:09;14.20;74.10
9118;DHT22;4594;50.994;7.126;2024-02-15T05:08:38;14.10;74.10
9118;DHT22;4594;50.994;7.126;2024-02-15T05:11:11;14.20;74.30
9118;DHT22;4594;50.994;7.126;2024-02-15T05:13:45;14.20;73.90
9118;DHT22;4594;50.994;7.126;2024-02-15T05:16:12;14.20;74.30
9118;DHT22;4594;50.994;7.126;2024-02-15T05:18:38;14.20;74.30
9118;DHT22;4594;50.994;7.126;2024-02-15T05:21:06;14.20;74.30
9118;DHT22;4594;50.994;7.126;2024-02-15T05:23:38;14.20;74.30
9118;DHT22;4594;50.994;7.126;2024-02-15T05:26:09;14.20;73.80
9118;DHT22;4594;50.994;7.126;2024-02-15T05:28:37;14.30;74.30
9118;DHT22;4594;50.994;7.126;2024-02-15T05:31:13;14.10;74.00
9118;DHT22;4594;50.994;7.126;2024-02-15T05:33:43;14.30;73.10
9118;DHT22;4594;50.994;7.126;2024-02-15T05:36:11;14.20;74.00
9118;DHT22;4594;50.994;7.126;2024-02-15T05:38:37;14.30;74.00
9118;DHT22;4594;50.994;7.126;2024-02-15T05:41:03;14.30;74.10
9118;DHT22;4594;50.994;7.126;2024-02-15T05:43:29;14.30;74.00
9118;DHT22;4594;50.994;7.126;2024-02-15T05:45:55;14.30;74.00
9118;DHT22;4594;50.994;7.126;2024-02-15T05:48:23;14.30;74.00
9118;DHT22;4594;50.994;7.126;2024-02-15T05:50:49;14.30;74.00
9118;DHT22;4594;50.994;7.126;2024-02-15T05:53:14;14.30;74.00
9118;DHT22;4594;50.994;7.126;2024-02-15T05:55:40;14.40;74.20
9118;DHT22;4594;50.994;7.126;2024-02-15T05:58:10;14.30;73.90
9118;DHT22;4594;50.994;7.126;2024-02-15T06:00:37;14.40;73.90
9118;DHT22;4594;50.994;7.126;2024-02-15T06:03:04;14.70;74.30
9118;DHT22;4594;50.994;7.126;2024-02-15T06:05:35;14.40;74.20
9118;DHT22;4594;50.994;7.126;2024-02-15T06:08:01;14.40;74.20
9118;DHT22;4594;50.994;7.126;2024-02-15T06:10:26;14.40;74.30
9118;DHT22;4594;50.994;7.126;2024-02-15T06:12:52;14.40;74.80
9118;DHT22;4594;50.994;7.126;2024-02-15T06:15:18;14.40;74.40
9118;DHT22;4594;50.994;7.126;2024-02-15T06:17:44;14.40;74.80
9118;DHT22;4594;50.994;7.126;2024-02-15T06:20:13;14.30;74.30
9118;DHT22;4594;50.994;7.126;2024-02-15T06:22:39;14.50;74.10
9118;DHT22;4594;50.994;7.126;2024-02-15T06:25:06;14.50;74.50
9118;DHT22;4594;50.994;7.126;2024-02-15T06:27:32;14.50;74.40
9118;DHT22;4594;50.994;7.126;2024-02-15T06:29:58;14.50;74.20
9118;DHT22;4594;50.994;7.126;2024-02-15T06:32:42;14.50;74.00
9118;DHT22;4594;50.994;7.126;2024-02-15T06:35:27;14.50;73.80
9118;DHT22;4594;50.994;7.126;2024-02-15T06:38:11;14.50;73.70
9118;DHT22;4594;50.994;7.126;2024-02-15T06:40:55;14.50;73.70
9118;DHT22;4594;50.994;7.126;2024-02-15T06:43:21;14.50;73.60
9118;DHT22;4594;50.994;7.126;2024-02-15T06:45:47;14.70;73.70
9118;DHT22;4594;50.994;7.126;2024-02-15T06:48:13;14.40;73.50
9118;DHT22;4594;50.994;7.126;2024-02-15T06:50:39;14.50;73.70
9118;DHT22;4594;50.994;7.126;2024-02-15T06:53:05;14.50;73.60
9118;DHT22;4594;50.994;7.126;2024-02-15T06:55:31;14.50;73.50
9118;DHT22;4594;50.994;7.126;2024-02-15T06:57:56;14.50;73.50
9118;DHT22;4594;50.994;7.126;2024-02-15T07:00:22;14.50;73.80
9118;DHT22;4594;50.994;7.126;2024-02-15T07:02:50;14.50;73.40
9118;DHT22;4594;50.994;7.126;2024-02-15T07:05:15;14.50;73.40
9118;DHT22;4594;50.994;7.126;2024-02-15T07:07:42;14.50;73.40
9118;DHT22;4594;50.994;7.126;2024-02-15T07:10:09;14.50;73.40
9118;DHT22;4594;50.994;7.126;2024-02-15T07:12:36;14.50;73.30
9118;DHT22;4594;50.994;7.126;2024-02-15T07:15:04;14.50;73.40
9118;DHT22;4594;50.994;7.126;2024-02-15T07:17:32;14.50;73.40
9118;DHT22;4594;50.994;7.126;2024-02-15T07:19:58;14.60;73.50
9118;DHT22;4594;50.994;7.126;2024-02-15T07:22:24;14.60;73.60
9118;DHT22;4594;50.994;7.126;2024-02-15T07:24:49;14.60;73.70
9118;DHT22;4594;50.994;7.126;2024-02-15T07:27:15;14.60;73.70
9118;DHT22;4594;50.994;7.126;2024-02-15T07:29:41;14.60;73.90
9118;DHT22;4594;50.994;7.126;2024-02-15T07:32:07;14.60;73.80
9118;DHT22;4594;50.994;7.126;2024-02-15T07:34:33;14.60;73.70
9118;DHT22;4594;50.994;7.126;2024-02-15T07:36:59;14.60;73.60
9118;DHT22;4594;50.994;7.126;2024-02-15T07:39:27;14.60;73.50
9118;DHT22;4594;50.994;7.126;2024-02-15T07:41:56;14.60;73.50
9118;DHT22;4594;50.994;7.126;2024-02-15T07:44:25;14.70;73.10
9118;DHT22;4594;50.994;7.126;2024-02-15T07:46:53;14.60;73.40
9118;DHT22;4594;50.994;7.126;2024-02-15T07:49:19;14.70;73.40
9118;DHT22;4594;50.994;7.126;2024-02-15T07:51:45;14.70;73.30
9118;DHT22;4594;50.994;7.126;2024-02-15T07:54:17;14.70;73.30
9118;DHT22;4594;50.994;7.126;2024-02-15T07:56:43;14.70;73.10
9118;DHT22;4594;50.994;7.126;2024-02-15T07:59:09;14.70;73.20
9118;DHT22;4594;50.994;7.126;2024-02-15T08:01:35;14.70;72.90
9118;DHT22;4594;50.994;7.126;2024-02-15T08:04:01;14.70;72.80
9118;DHT22;4594;50.994;7.126;2024-02-15T08:06:27;14.60;72.40
9118;DHT22;4594;50.994;7.126;2024-02-15T08:08:53;14.60;72.30
9118;DHT22;4594;50.994;7.126;2024-02-15T08:11:19;14.70;72.40
9118;DHT22;4594;50.994;7.126;2024-02-15T08:13:50;14.60;72.10
9118;DHT22;4594;50.994;7.126;2024-02-15T08:16:20;14.60;71.40
9118;DHT22;4594;50.994;7.126;2024-02-15T08:18:52;14.60;72.30
9118;DHT22;4594;50.994;7.126;2024-02-15T08:21:28;14.60;72.50
9118;DHT22;4594;50.994;7.126;2024-02-15T08:24:01;14.60;72.00
9118;DHT22;4594;50.994;7.126;2024-02-15T08:26:35;14.60;72.60
9118;DHT22;4594;50.994;7.126;2024-02-15T08:29:03;14.70;72.10
9118;DHT22;4594;50.994;7.126;2024-02-15T08:31:30;14.60;72.20
9118;DHT22;4594;50.994;7.126;2024-02-15T08:33:57;14.60;72.20
9118;DHT22;4594;50.994;7.126;2024-02-15T08:36:23;14.60;71.80
9118;DHT22;4594;50.994;7.126;2024-02-15T08:38:50;14.50;71.80
9118;DHT22;4594;50.994;7.126;2024-02-15T08:41:16;14.50;71.80
9118;DHT22;4594;50.994;7.126;2024-02-15T08:43:44;14.40;71.60
9118;DHT22;4594;50.994;7.126;2024-02-15T08:46:11;14.40;71.80
9118;DHT22;4594;50.994;7.126;2024-02-15T08:48:38;14.40;71.80
9118;DHT22;4594;50.994;7.126;2024-02-15T08:51:04;14.40;71.70
9118;DHT22;4594;50.994;7.126;2024-02-15T08:53:31;14.30;71.50
9118;DHT22;4594;50.994;7.126;2024-02-15T08:55:57;14.30;71.60
9118;DHT22;4594;50.994;7.126;2024-02-15T08:58:23;14.30;71.70
9118;DHT22;4594;50.994;7.126;2024-02-15T09:00:49;14.30;71.80
9118;DHT22;4594;50.994;7.126;2024-02-15T09:03:15;14.30;72.50
9118;DHT22;4594;50.994;7.126;2024-02-15T09:05:40;14.20;72.20
9118;DHT22;4594;50.994;7.126;2024-02-15T09:08:07;14.10;72.20
9118;DHT22;4594;50.994;7.126;2024-02-15T09:10:33;14.20;72.50
9118;DHT22;4594;50.994;7.126;2024-02-15T09:13:01;14.20;72.80
9118;DHT22;4594;50.994;7.126;2024-02-15T09:15:27;14.10;72.90
9118;DHT22;4594;50.994;7.126;2024-02-15T09:17:56;14.10;73.00
9118;DHT22;4594;50.994;7.126;2024-02-15T09:20:24;14.10;72.90
9118;DHT22;4594;50.994;7.126;2024-02-15T09:22:54;14.30;73.50
9118;DHT22;4594;50.994;7.126;2024-02-15T09:25:22;14.10;73.50
9118;DHT22;4594;50.994;7.126;2024-02-15T09:27:51;14.00;73.90
9118;DHT22;4594;50.994;7.126;2024-02-15T09:30:19;14.10;74.30
9118;DHT22;4594;50.994;7.126;2024-02-15T09:32:45;14.20;74.70
9118;DHT22;4594;50.994;7.126;2024-02-15T09:35:12;14.20;75.20
9118;DHT22;4594;50.994;7.126;2024-02-15T09:37:42;14.20;75.80
9118;DHT22;4594;50.994;7.126;2024-02-15T09:40:12;14.30;76.50
9118;DHT22;4594;50.994;7.126;2024-02-15T09:42:40;14.40;77.10
9118;DHT22;4594;50.994;7.126;2024-02-15T09:45:07;14.40;77.20
9118;DHT22;4594;50.994;7.126;2024-02-15T09:47:42;14.50;77.10
9118;DHT22;4594;50.994;7.126;2024-02-15T09:50:12;14.60;76.70
9118;DHT22;4594;50.994;7.126;2024-02-15T09:52:40;14.60;76.10
9118;DHT22;4594;50.994;7.126;2024-02-15T09:55:09;14.60;75.80
9118;DHT22;4594;50.994;7.126;2024-02-15T09:57:41;14.70;75.70
9118;DHT22;4594;50.994;7.126;2024-02-15T10:00:09;14.70;75.50
9118;DHT22;4594;50.994;7.126;2024-02-15T10:02:40;14.70;75.40
9118;DHT22;4594;50.994;7.126;2024-02-15T10:05:09;14.70;75.70
9118;DHT22;4594;50.994;7.126;2024-02-15T10:07:39;14.70;75.70
9118;DHT22;4594;50.994;7.126;2024-02-15T10:12:42;14.80;75.80
9118;DHT22;4594;50.994;7.126;2024-02-15T10:15:09;14.90;76.80
9118;DHT22;4594;50.994;7.126;2024-02-15T10:17:35;14.90;76.90
9118;DHT22;4594;50.994;7.126;2024-02-15T10:20:05;15.00;77.10
9118;DHT22;4594;50.994;7.126;2024-02-15T10:22:32;15.00;76.50
9118;DHT22;4594;50.994;7.126;2024-02-15T10:25:13;15.10;77.10
9118;DHT22;4594;50.994;7.126;2024-02-15T10:27:42;15.10;74.90
9118;DHT22;4594;50.994;7.126;2024-02-15T10:30:18;15.20;76.20
9118;DHT22;4594;50.994;7.126;2024-02-15T10:32:45;15.20;75.50
9118;DHT22;4594;50.994;7.126;2024-02-15T10:35:24;15.30;76.50
9118;DHT22;4594;50.994;7.126;2024-02-15T10:37:50;15.20;74.20
9118;DHT22;4594;50.994;7.126;2024-02-15T10:40:22;15.30;75.80
9118;DHT22;4594;50.994;7.126;2024-02-15T10:42:51;15.30;75.00
9118;DHT22;4594;50.994;7.126;2024-02-15T10:45:17;15.30;75.10
9118;DHT22;4594;50.994;7.126;2024-02-15T10:47:44;15.30;75.50
9118;DHT22;4594;50.994;7.126;2024-02-15T10:50:14;15.30;75.30
9118;DHT22;4594;50.994;7.126;2024-02-15T10:52:51;15.40;75.30
9118;DHT22;4594;50.994;7.126;2024-02-15T10:55:36;15.40;74.30
9118;DHT22;4594;50.994;7.126;2024-02-15T10:58:06;15.40;73.90
9118;DHT22;4594;50.994;7.126;2024-02-15T11:00:33;15.50;76.10
9118;DHT22;4594;50.994;7.126;2024-02-15T11:03:07;15.40;76.30
9118;DHT22;4594;50.994;7.126;2024-02-15T11:05:36;15.60;76.50
9118;DHT22;4594;50.994;7.126;2024-02-15T11:08:06;15.60;77.40
9118;DHT22;4594;50.994;7.126;2024-02-15T11:10:38;15.70;77.10
9118;DHT22;4594;50.994;7.126;2024-02-15T11:13:09;15.80;75.90
9118;DHT22;4594;50.994;7.126;2024-02-15T11:18:01;15.90;76.50
9118;DHT22;4594;50.994;7.126;2024-02-15T11:23:04;16.00;75.80
9118;DHT22;4594;50.994;7.126;2024-02-15T11:25:38;16.00;76.90
9118;DHT22;4594;50.994;7.126;2024-02-15T11:30:52;16.00;74.40
9118;DHT22;4594;50.994;7.126;2024-02-15T11:33:31;16.20;76.60
9118;DHT22;4594;50.994;7.126;2024-02-15T11:38:34;16.30;76.00
9118;DHT22;4594;50.994;7.126;2024-02-15T11:41:01;16.40;77.90
9118;DHT22;4594;50.994;7.126;2024-02-15T11:46:11;16.60;75.20
9118;DHT22;4594;50.994;7.126;2024-02-15T11:48:39;16.60;77.20
9118;DHT22;4594;50.994;7.126;2024-02-15T11:51:05;16.70;77.00
9118;DHT22;4594;50.994;7.126;2024-02-15T11:53:32;16.80;76.40
9118;DHT22;4594;50.994;7.126;2024-02-15T11:56:01;16.80;76.00
9118;DHT22;4594;50.994;7.126;2024-02-15T11:58:30;16.80;75.50
9118;DHT22;4594;50.994;7.126;2024-02-15T12:01:17;16.90;76.70
9118;DHT22;4594;50.994;7.126;2024-02-15T12:04:01;17.00;76.20
9118;DHT22;4594;50.994;7.126;2024-02-15T12:06:46;17.00;75.60
9118;DHT22;4594;50.994;7.126;2024-02-15T12:09:31;17.10;75.50
9118;DHT22;4594;50.994;7.126;2024-02-15T12:12:15;17.10;75.40
9118;DHT22;4594;50.994;7.126;2024-02-15T12:15:02;17.10;74.80
9118;DHT22;4594;50.994;7.126;2024-02-15T12:17:47;17.20;73.80
9118;DHT22;4594;50.994;7.126;2024-02-15T12:20:31;17.20;74.50
9118;DHT22;4594;50.994;7.126;2024-02-15T12:22:58;17.20;74.10
9118;DHT22;4594;50.994;7.126;2024-02-15T12:25:26;17.20;73.70
9118;DHT22;4594;50.994;7.126;2024-02-15T12:27:58;17.20;73.30
9118;DHT22;4594;50.994;7.126;2024-02-15T12:30:25;17.20;72.20
9118;DHT22;4594;50.994;7.126;2024-02-15T12:33:09;17.30;73.60
9118;DHT22;4594;50.994;7.126;2024-02-15T12:35:44;17.30;71.00
9118;DHT22;4594;50.994;7.126;2024-02-15T12:38:12;17.30;73.50
9118;DHT22;4594;50.994;7.126;2024-02-15T12:40:41;17.40;72.00
9118;DHT22;4594;50.994;7.126;2024-02-15T12:43:08;17.40;72.70
9118;DHT22;4594;50.994;7.126;2024-02-15T12:45:42;17.30;72.40
9118;DHT22;4594;50.994;7.126;2024-02-15T12:48:09;17.40;69.90
9118;DHT22;4594;50.994;7.126;2024-02-15T12:50:36;17.40;72.90
9118;DHT22;4594;50.994;7.126;2024-02-15T12:53:02;17.50;72.30
9118;DHT22;4594;50.994;7.126;2024-02-15T12:58:03;17.50;71.40
9118;DHT22;4594;50.994;7.126;2024-02-15T13:00:34;17.50;71.80
9118;DHT22;4594;50.994;7.126;2024-02-15T13:03:06;17.60;72.30
9118;DHT22;4594;50.994;7.126;2024-02-15T13:05:37;17.60;72.10
9118;DHT22;4594;50.994;7.126;2024-02-15T13:08:04;17.60;72.20
9118;DHT22;4594;50.994;7.126;2024-02-15T13:10:38;17.60;72.00
9118;DHT22;4594;50.994;7.126;2024-02-15T13:13:04;17.70;72.10
9118;DHT22;4594;50.994;7.126;2024-02-15T13:15:31;17.70;71.80
9118;DHT22;4594;50.994;7.126;2024-02-15T13:18:00;17.80;71.90
9118;DHT22;4594;50.994;7.126;2024-02-15T13:20:27;17.80;71.40
9118;DHT22;4594;50.994;7.126;2024-02-15T13:22:58;17.80;70.30
9118;DHT22;4594;50.994;7.126;2024-02-15T13:25:42;17.90;70.70
9118;DHT22;4594;50.994;7.126;2024-02-15T13:28:09;17.80;70.90
9118;DHT22;4594;50.994;7.126;2024-02-15T13:30:38;17.90;71.10
9118;DHT22;4594;50.994;7.126;2024-02-15T13:33:04;17.90;70.40
9118;DHT22;4594;50.994;7.126;2024-02-15T13:35:32;17.90;70.50
9118;DHT22;4594;50.994;7.126;2024-02-15T13:37:58;17.90;70.70
9118;DHT22;4594;50.994;7.126;2024-02-15T13:40:25;17.90;70.50
9118;DHT22;4594;50.994;7.126;2024-02-15T13:42:54;18.00;69.80
9118;DHT22;4594;50.994;7.126;2024-02-15T13:45:27;18.00;68.90
9118;DHT22;4594;50.994;7.126;2024-02-15T13:48:03;18.00;68.30
9118;DHT22;4594;50.994;7.126;2024-02-15T13:50:36;18.00;68.20
9118;DHT22;4594;50.994;7.126;2024-02-15T13:53:04;18.00;68.60
9118;DHT22;4594;50.994;7.126;2024-02-15T13:55:30;18.00;68.10
9118;DHT22;4594;50.994;7.126;2024-02-15T13:57:57;18.00;68.50
9118;DHT22;4594;50.994;7.126;2024-02-15T14:00:24;18.00;68.00
9118;DHT22;4594;50.994;7.126;2024-02-15T14:03:00;18.00;67.90
9118;DHT22;4594;50.994;7.126;2024-02-15T14:05:28;18.00;67.90
9118;DHT22;4594;50.994;7.126;2024-02-15T14:07:56;18.00;68.20
9118;DHT22;4594;50.994;7.126;2024-02-15T14:10:30;18.00;68.00
9118;DHT22;4594;50.994;7.126;2024-02-15T14:12:57;18.00;68.50
9118;DHT22;4594;50.994;7.126;2024-02-15T14:15:24;18.00;68.00
9118;DHT22;4594;50.994;7.126;2024-02-15T14:17:50;18.00;67.70
9118;DHT22;4594;50.994;7.126;2024-02-15T14:20:16;18.00;67.70
9118;DHT22;4594;50.994;7.126;2024-02-15T14:22:44;18.00;67.80
9118;DHT22;4594;50.994;7.126;2024-02-15T14:25:14;18.00;66.50
9118;DHT22;4594;50.994;7.126;2024-02-15T14:27:41;18.00;67.10
9118;DHT22;4594;50.994;7.126;2024-02-15T14:30:08;18.00;66.60
9118;DHT22;4594;50.994;7.126;2024-02-15T14:32:52;18.10;67.00
9118;DHT22;4594;50.994;7.126;2024-02-15T14:35:33;18.00;66.70
9118;DHT22;4594;50.994;7.126;2024-02-15T14:38:03;18.00;64.90
9118;DHT22;4594;50.994;7.126;2024-02-15T14:40:36;18.00;67.00
9118;DHT22;4594;50.994;7.126;2024-02-15T14:43:08;18.00;65.80
9118;DHT22;4594;50.994;7.126;2024-02-15T14:45:38;18.00;67.10
9118;DHT22;4594;50.994;7.126;2024-02-15T14:48:06;18.00;66.90
9118;DHT22;4594;50.994;7.126;2024-02-15T14:50:44;18.00;66.30
9118;DHT22;4594;50.994;7.126;2024-02-15T14:53:11;18.00;63.50
9118;DHT22;4594;50.994;7.126;2024-02-15T14:55:38;18.00;66.70
9118;DHT22;4594;50.994;7.126;2024-02-15T14:58:07;17.90;66.40
9118;DHT22;4594;50.994;7.126;2024-02-15T15:00:34;17.90;64.40
9118;DHT22;4594;50.994;7.126;2024-02-15T15:03:00;17.90;65.60
9118;DHT22;4594;50.994;7.126;2024-02-15T15:05:28;17.90;65.90
9118;DHT22;4594;50.994;7.126;2024-02-15T15:08:12;17.90;66.00
9118;DHT22;4594;50.994;7.126;2024-02-15T15:10:56;17.90;65.40
9118;DHT22;4594;50.994;7.126;2024-02-15T15:13:40;17.90;65.10
9118;DHT22;4594;50.994;7.126;2024-02-15T15:16:06;17.80;65.00
9118;DHT22;4594;50.994;7.126;2024-02-15T15:18:33;17.80;64.40
9118;DHT22;4594;50.994;7.126;2024-02-15T15:20:59;17.80;64.40
9118;DHT22;4594;50.994;7.126;2024-02-15T15:23:29;17.80;64.20
9118;DHT22;4594;50.994;7.126;2024-02-15T15:26:01;17.70;62.50
9118;DHT22;4594;50.994;7.126;2024-02-15T15:28:27;17.70;62.40
9118;DHT22;4594;50.994;7.126;2024-02-15T15:30:53;17.70;63.70
9118;DHT22;4594;50.994;7.126;2024-02-15T15:33:20;17.60;63.90
9118;DHT22;4594;50.994;7.126;2024-02-15T15:35:47;17.60;63.90
9118;DHT22;4594;50.994;7.126;2024-02-15T15:38:14;17.60;63.90
9118;DHT22;4594;50.994;7.126;2024-02-15T15:40:40;17.60;63.50
9118;DHT22;4594;50.994;7.126;2024-02-15T15:43:07;17.50;63.50
9118;DHT22;4594;50.994;7.126;2024-02-15T15:45:36;17.50;63.30
9118;DHT22;4594;50.994;7.126;2024-02-15T15:48:02;17.50;61.80
9118;DHT22;4594;50.994;7.126;2024-02-15T15:50:31;17.40;62.90
9118;DHT22;4594;50.994;7.126;2024-02-15T15:53:04;17.40;63.20
9118;DHT22;4594;50.994;7.126;2024-02-15T15:55:30;17.40;63.10
9118;DHT22;4594;50.994;7.126;2024-02-15T15:57:57;17.30;63.20
9118;DHT22;4594;50.994;7.126;2024-02-15T16:00:23;17.30;62.90
9118;DHT22;4594;50.994;7.126;2024-02-15T16:02:49;17.30;63.10
9118;DHT22;4594;50.994;7.126;2024-02-15T16:05:20;17.40;63.10
9118;DHT22;4594;50.994;7.126;2024-02-15T16:07:46;17.30;63.50
9118;DHT22;4594;50.994;7.126;2024-02-15T16:10:13;17.30;64.30
9118;DHT22;4594;50.994;7.126;2024-02-15T16:12:42;17.20;64.50
9118;DHT22;4594;50.994;7.126;2024-02-15T16:15:11;17.20;62.70
9118;DHT22;4594;50.994;7.126;2024-02-15T16:17:43;17.20;63.00
9118;DHT22;4594;50.994;7.126;2024-02-15T16:20:09;17.20;64.00
9118;DHT22;4594;50.994;7.126;2024-02-15T16:22:36;17.20;65.80
9118;DHT22;4594;50.994;7.126;2024-02-15T16:25:04;17.10;65.80
9118;DHT22;4594;50.994;7.126;2024-02-15T16:27:40;17.10;65.90
9118;DHT22;4594;50.994;7.126;2024-02-15T16:30:09;17.10;63.20